createdAt,value
2018-09-24T00:00:24.295Z,64.24
2018-09-24T00:01:32.862Z,64.43
2018-09-24T00:02:41.770Z,64.53
2018-09-24T00:03:50.674Z,64.43
2018-09-24T00:04:59.308Z,64.43
2018-09-24T00:06:07.945Z,64.62
2018-09-24T00:07:16.581Z,64.72
2018-09-24T00:08:25.480Z,64.62
2018-09-24T00:09:34.121Z,64.43
2018-09-24T00:10:42.760Z,64.9
2018-09-24T00:11:51.398Z,64.34
2018-09-24T00:13:00.300Z,64.24
2018-09-24T00:14:08.995Z,65.19
2018-09-24T00:15:17.580Z,64.9
2018-09-24T00:16:26.218Z,64.69
2018-09-24T00:17:34.852Z,65.06
2018-09-24T00:18:43.769Z,64.3
2018-09-24T00:19:52.661Z,64.21
2018-09-24T00:21:01.835Z,64.4
2018-09-24T00:22:10.468Z,64.3
2018-09-24T00:23:19.374Z,64.4
2018-09-24T00:24:28.285Z,64.3
2018-09-24T00:25:36.929Z,64.87
2018-09-24T00:26:45.571Z,64.78
2018-09-24T00:27:54.207Z,64.69
2018-09-24T00:29:02.846Z,64.78
2018-09-24T00:30:11.758Z,64.69
2018-09-24T00:31:20.661Z,65.16
2018-09-24T00:32:29.291Z,64.78
2018-09-24T00:33:37.933Z,65.06
2018-09-24T00:34:46.566Z,64.59
2018-09-24T00:35:55.213Z,65.25
2018-09-24T00:37:03.848Z,65.16
2018-09-24T00:38:12.491Z,65.06
2018-09-24T00:39:21.391Z,65.25
2018-09-24T00:40:30.041Z,65.16
2018-09-24T00:41:38.677Z,65.16
2018-09-24T00:42:47.310Z,65.54
2018-09-24T00:43:55.945Z,65.06
2018-09-24T00:45:04.583Z,65.44
2018-09-24T00:46:13.230Z,65.35
2018-09-24T00:47:21.866Z,65.35
2018-09-24T00:48:30.508Z,65.35
2018-09-24T00:49:39.136Z,65.44
2018-09-24T00:50:47.780Z,65.25
2018-09-24T00:51:56.413Z,65.54
2018-09-24T00:53:05.061Z,65.54
2018-09-24T00:54:13.952Z,65.44
2018-09-24T00:55:22.600Z,65.25
2018-09-24T00:56:31.498Z,65.35
2018-09-24T00:57:40.145Z,65.35
2018-09-24T00:58:49.039Z,65.54
2018-09-24T00:59:57.676Z,65.35
2018-09-24T01:01:06.323Z,65.73
2018-09-24T01:02:14.968Z,65.25
2018-09-24T01:03:23.610Z,65.35
2018-09-24T01:04:32.242Z,65.25
2018-09-24T01:05:41.149Z,65.16
2018-09-24T01:06:49.782Z,65.16
2018-09-24T01:07:58.430Z,65.54
2018-09-24T01:09:07.062Z,65.16
2018-09-24T01:10:15.703Z,65.44
2018-09-24T01:11:24.337Z,65.25
2018-09-24T01:12:32.993Z,65.16
2018-09-24T01:13:41.883Z,65.54
2018-09-24T01:14:50.524Z,65.25
2018-09-24T01:15:59.161Z,65.63
2018-09-24T01:17:07.808Z,65.16
2018-09-24T01:18:16.445Z,65.16
2018-09-24T01:19:25.078Z,65.16
2018-09-24T01:20:33.715Z,65.25
2018-09-24T01:21:42.351Z,64.97
2018-09-24T01:22:50.998Z,64.78
2018-09-24T01:23:59.632Z,64.78
2018-09-24T01:25:08.543Z,65.16
2018-09-24T01:26:17.165Z,64.78
2018-09-24T01:27:25.812Z,64.78
2018-09-24T01:28:34.445Z,64.97
2018-09-24T01:29:43.620Z,64.69
2018-09-24T01:30:52.261Z,64.21
2018-09-24T01:32:00.895Z,64.08
2018-09-24T01:33:09.534Z,64.37
2018-09-24T01:34:18.435Z,64.37
2018-09-24T01:35:27.086Z,64.17
2018-09-24T01:36:35.717Z,64.08
2018-09-24T01:37:44.612Z,64.02
2018-09-24T01:38:53.247Z,63.54
2018-09-24T01:40:01.886Z,63.92
2018-09-24T01:41:10.533Z,63.73
2018-09-24T01:42:19.166Z,63.92
2018-09-24T01:43:27.809Z,63.35
2018-09-24T01:44:36.437Z,63.26
2018-09-24T01:45:45.084Z,63.54
2018-09-24T01:46:53.721Z,63.35
2018-09-24T01:48:02.363Z,62.97
2018-09-24T01:49:10.994Z,62.69
2018-09-24T01:50:19.640Z,62.78
2018-09-24T01:51:28.276Z,62.66
2018-09-24T01:52:37.181Z,62.4
2018-09-24T01:53:45.810Z,62.56
2018-09-24T01:54:54.449Z,62.21
2018-09-24T01:56:03.096Z,62.27
2018-09-24T01:57:11.993Z,61.93
2018-09-24T01:58:20.635Z,61.74
2018-09-24T01:59:29.263Z,62.12
2018-09-24T02:00:37.907Z,61.71
2018-09-24T02:01:46.539Z,61.65
2018-09-24T02:02:55.469Z,61.99
2018-09-24T02:04:04.093Z,61.83
2018-09-24T02:05:12.740Z,61.99
2018-09-24T02:06:21.636Z,61.8
2018-09-24T02:07:30.284Z,61.04
2018-09-24T02:08:38.916Z,61.23
2018-09-24T02:09:47.815Z,61.52
2018-09-24T02:10:56.453Z,60.85
2018-09-24T02:12:05.097Z,60.66
2018-09-24T02:13:13.733Z,60.85
2018-09-24T02:14:22.366Z,60.28
2018-09-24T02:15:31.264Z,60.47
2018-09-24T02:16:40.160Z,60.1
2018-09-24T02:17:48.805Z,60.28
2018-09-24T02:18:57.439Z,60.38
2018-09-24T02:20:06.092Z,60.57
2018-09-24T02:21:14.711Z,59.81
2018-09-24T02:22:23.642Z,59.62
2018-09-24T02:23:32.276Z,59.62
2018-09-24T02:24:41.190Z,59.43
2018-09-24T02:25:49.819Z,59.52
2018-09-24T02:26:58.466Z,59.62
2018-09-24T02:28:07.103Z,59.52
2018-09-24T02:29:15.740Z,59.43
2018-09-24T02:30:24.388Z,59.14
2018-09-24T02:31:33.303Z,59.14
2018-09-24T02:32:41.967Z,59.33
2018-09-24T02:33:50.872Z,59.14
2018-09-24T02:34:59.519Z,59.24
2018-09-24T02:36:08.416Z,59.33
2018-09-24T02:37:17.053Z,58.86
2018-09-24T02:38:25.691Z,59.05
2018-09-24T02:39:34.336Z,58.67
2018-09-24T02:40:42.976Z,58.2
2018-09-24T02:41:52.416Z,58.2
2018-09-24T02:43:01.590Z,58.29
2018-09-24T02:44:10.239Z,58.1
2018-09-24T02:45:18.877Z,58.48
2018-09-24T02:46:27.522Z,58.39
2018-09-24T02:47:36.158Z,57.91
2018-09-24T02:48:44.800Z,58.2
2018-09-24T02:49:53.444Z,58.29
2018-09-24T02:51:02.082Z,58.1
2018-09-24T02:52:10.714Z,58.1
2018-09-24T02:53:19.352Z,58
2018-09-24T02:54:27.992Z,58.39
2018-09-24T02:55:36.637Z,58.1
2018-09-24T02:56:45.539Z,57.91
2018-09-24T02:57:54.434Z,57.24
2018-09-24T02:59:03.079Z,57.53
2018-09-24T03:00:11.974Z,57.53
2018-09-24T03:01:20.635Z,57.62
2018-09-24T03:02:29.245Z,57.24
2018-09-24T03:03:37.886Z,57.34
2018-09-24T03:04:46.522Z,57.06
2018-09-24T03:05:55.165Z,57.91
2018-09-24T03:07:04.069Z,57.34
2018-09-24T03:08:12.724Z,57.53
2018-09-24T03:09:21.625Z,57.43
2018-09-24T03:10:30.263Z,57.62
2018-09-24T03:11:38.906Z,57.62
2018-09-24T03:12:47.823Z,57.43
2018-09-24T03:13:56.465Z,57.24
2018-09-24T03:15:05.109Z,57.24
2018-09-24T03:16:13.752Z,57.15
2018-09-24T03:17:22.384Z,56.77
2018-09-24T03:18:31.028Z,56.87
2018-09-24T03:19:39.675Z,56.68
2018-09-24T03:20:48.309Z,56.68
2018-09-24T03:21:56.946Z,56.29
2018-09-24T03:23:05.587Z,56.58
2018-09-24T03:24:14.225Z,56.29
2018-09-24T03:25:23.168Z,56.58
2018-09-24T03:26:31.804Z,55.91
2018-09-24T03:27:40.443Z,55.91
2018-09-24T03:28:49.086Z,56.29
2018-09-24T03:29:57.727Z,55.91
2018-09-24T03:31:06.358Z,56.01
2018-09-24T03:32:15.006Z,55.44
2018-09-24T03:33:24.166Z,55.06
2018-09-24T03:34:32.812Z,55.16
2018-09-24T03:35:41.441Z,55.06
2018-09-24T03:36:50.089Z,55.44
2018-09-24T03:37:58.723Z,55.16
2018-09-24T03:39:07.372Z,55.16
2018-09-24T03:40:16.001Z,54.78
2018-09-24T03:41:24.639Z,54.49
2018-09-24T03:42:33.540Z,54.68
2018-09-24T03:43:42.190Z,54.66
2018-09-24T03:44:50.825Z,54.49
2018-09-24T03:45:59.469Z,54.3
2018-09-24T03:47:08.113Z,54.11
2018-09-24T03:48:16.749Z,54.39
2018-09-24T03:49:25.397Z,54.21
2018-09-24T03:50:34.029Z,54.46
2018-09-24T03:51:42.679Z,54.08
2018-09-24T03:52:51.310Z,53.8
2018-09-24T03:53:59.958Z,53.8
2018-09-24T03:55:08.594Z,54.08
2018-09-24T03:56:17.239Z,53.52
2018-09-24T03:57:25.871Z,53.64
2018-09-24T03:58:34.512Z,53.16
2018-09-24T03:59:43.145Z,53.07
2018-09-24T04:00:51.794Z,52.78
2018-09-24T04:02:00.687Z,52.59
2018-09-24T04:03:09.329Z,52.66
2018-09-24T04:04:17.973Z,52.4
2018-09-24T04:05:26.610Z,52.59
2018-09-24T04:06:35.257Z,52.31
2018-09-24T04:07:44.150Z,52.12
2018-09-24T04:08:52.795Z,52.09
2018-09-24T04:10:01.778Z,51.74
2018-09-24T04:11:10.975Z,51.45
2018-09-24T04:12:20.144Z,50.98
2018-09-24T04:13:29.058Z,51.05
2018-09-24T04:14:37.964Z,51.05
2018-09-24T04:15:46.617Z,50.98
2018-09-24T04:16:55.248Z,50.67
2018-09-24T04:18:04.155Z,50.86
2018-09-24T04:19:13.315Z,50.86
2018-09-24T04:20:21.964Z,50.98
2018-09-24T04:21:30.601Z,50.48
2018-09-24T04:22:39.500Z,50.38
2018-09-24T04:23:48.165Z,50.67
2018-09-24T04:24:57.060Z,49.72
2018-09-24T04:26:05.746Z,49.53
2018-09-24T04:27:14.649Z,49.43
2018-09-24T04:28:23.286Z,49.63
2018-09-24T04:29:32.204Z,48.68
2018-09-24T04:30:40.845Z,48.39
2018-09-24T04:31:49.483Z,48.49
2018-09-24T04:32:58.122Z,48.01
2018-09-24T04:34:07.024Z,48.3
2018-09-24T04:35:15.939Z,48.39
2018-09-24T04:36:24.576Z,47.73
2018-09-24T04:37:33.216Z,48.11
2018-09-24T04:38:42.110Z,48.39
2018-09-24T04:39:50.745Z,48.01
2018-09-24T04:40:59.383Z,47.63
2018-09-24T04:42:08.287Z,47.92
2018-09-24T04:43:16.928Z,48.11
2018-09-24T04:44:25.823Z,48.01
2018-09-24T04:45:34.461Z,48.3
2018-09-24T04:46:43.108Z,47.73
2018-09-24T04:47:52.014Z,47.82
2018-09-24T04:49:00.704Z,47.25
2018-09-24T04:50:09.615Z,47.44
2018-09-24T04:51:18.254Z,47.34
2018-09-24T04:52:27.164Z,47.53
2018-09-24T04:53:35.797Z,47.53
2018-09-24T04:54:44.703Z,47.53
2018-09-24T04:55:53.603Z,47.44
2018-09-24T04:57:02.253Z,47.25
2018-09-24T04:58:11.152Z,47.06
2018-09-24T04:59:20.327Z,47.25
2018-09-24T05:00:28.961Z,47.25
2018-09-24T05:01:37.870Z,47.16
2018-09-24T05:02:46.512Z,47.06
2018-09-24T05:03:55.151Z,47.06
2018-09-24T05:05:03.789Z,47.16
2018-09-24T05:06:12.685Z,46.59
2018-09-24T05:07:21.327Z,46.78
2018-09-24T05:08:30.224Z,46.69
2018-09-24T05:09:38.870Z,46.78
2018-09-24T05:10:47.504Z,46.69
2018-09-24T05:11:56.147Z,47.06
2018-09-24T05:13:04.781Z,46.49
2018-09-24T05:14:13.422Z,46.4
2018-09-24T05:15:22.059Z,46.4
2018-09-24T05:16:30.730Z,46.4
2018-09-24T05:17:39.813Z,46.3
2018-09-24T05:18:48.450Z,46.49
2018-09-24T05:19:57.123Z,46.11
2018-09-24T05:21:05.989Z,45.83
2018-09-24T05:22:14.625Z,46.21
2018-09-24T05:23:23.271Z,45.83
2018-09-24T05:24:32.173Z,45.64
2018-09-24T05:25:41.068Z,45.64
2018-09-24T05:26:49.966Z,45.92
2018-09-24T05:27:58.610Z,45.64
2018-09-24T05:29:07.505Z,45.45
2018-09-24T05:30:16.147Z,45.36
2018-09-24T05:31:24.782Z,45.07
2018-09-24T05:32:33.424Z,45.07
2018-09-24T05:33:42.066Z,44.98
2018-09-24T05:34:51.038Z,45.07
2018-09-24T05:35:59.654Z,44.69
2018-09-24T05:37:08.565Z,44.98
2018-09-24T05:38:17.206Z,44.6
2018-09-24T05:39:25.838Z,44.4
2018-09-24T05:40:34.477Z,44.4
2018-09-24T05:41:43.113Z,44.5
2018-09-24T05:42:52.021Z,44.31
2018-09-24T05:44:00.655Z,43.84
2018-09-24T05:45:09.294Z,43.74
2018-09-24T05:46:18.193Z,43.27
2018-09-24T05:47:26.837Z,43.17
2018-09-24T05:48:35.472Z,43.08
2018-09-24T05:49:44.383Z,43.36
2018-09-24T05:50:53.019Z,43.08
2018-09-24T05:52:01.662Z,42.79
2018-09-24T05:53:10.304Z,42.51
2018-09-24T05:54:19.243Z,42.63
2018-09-24T05:55:28.192Z,42.53
2018-09-24T05:56:36.828Z,42.51
2018-09-24T05:57:45.469Z,42.34
2018-09-24T05:58:54.110Z,42.7
2018-09-24T06:00:03.041Z,42.05
2018-09-24T06:01:11.932Z,42.15
2018-09-24T06:02:20.585Z,41.86
2018-09-24T06:03:29.220Z,41.86
2018-09-24T06:04:37.871Z,41.96
2018-09-24T06:05:46.833Z,41.67
2018-09-24T06:06:55.476Z,41.77
2018-09-24T06:08:04.372Z,41.86
2018-09-24T06:09:13.014Z,41.67
2018-09-24T06:10:21.642Z,41.49
2018-09-24T06:11:30.284Z,39.87
2018-09-24T06:12:39.188Z,39.68
2018-09-24T06:13:47.828Z,39.97
2018-09-24T06:14:56.467Z,39.87
2018-09-24T06:16:05.099Z,39.78
2018-09-24T06:17:13.772Z,39.68
2018-09-24T06:18:22.668Z,39.59
2018-09-24T06:19:31.312Z,39.68
2018-09-24T06:20:39.945Z,39.59
2018-09-24T06:21:48.852Z,39.61
2018-09-24T06:22:57.508Z,39.42
2018-09-24T06:24:06.150Z,39.13
2018-09-24T06:25:14.778Z,39.23
2018-09-24T06:26:23.419Z,39.13
2018-09-24T06:27:32.054Z,38.85
2018-09-24T06:28:40.702Z,39.23
2018-09-24T06:29:49.621Z,38.75
2018-09-24T06:30:58.255Z,38.94
2018-09-24T06:32:06.895Z,38.94
2018-09-24T06:33:15.789Z,38.85
2018-09-24T06:34:24.544Z,39.23
2018-09-24T06:35:33.342Z,39.32
2018-09-24T06:36:41.985Z,39.32
2018-09-24T06:37:50.614Z,39.04
2018-09-24T06:38:59.261Z,39.23
2018-09-24T06:40:07.954Z,39.04
2018-09-24T06:41:16.634Z,39.04
2018-09-24T06:42:25.553Z,39.13
2018-09-24T06:43:34.205Z,39.42
2018-09-24T06:44:42.840Z,39.61
2018-09-24T06:45:51.756Z,39.32
2018-09-24T06:47:00.644Z,39.42
2018-09-24T06:48:09.289Z,39.23
2018-09-24T06:49:17.934Z,39.13
2018-09-24T06:50:26.579Z,39.23
2018-09-24T06:51:35.244Z,39.23
2018-09-24T06:52:44.399Z,39.06
2018-09-24T06:53:53.306Z,39.25
2018-09-24T06:55:01.939Z,39.23
2018-09-24T06:56:10.586Z,39.13
2018-09-24T06:57:19.512Z,38.87
2018-09-24T06:58:28.168Z,40.1
2018-09-24T06:59:37.123Z,41.43
2018-09-24T07:00:45.717Z,41.43
2018-09-24T07:01:54.662Z,41.43
2018-09-24T07:03:03.305Z,41.53
2018-09-24T07:04:11.942Z,41.34
2018-09-24T07:05:20.621Z,41.62
2018-09-24T07:06:29.329Z,41.43
2018-09-24T07:07:37.968Z,42
2018-09-24T07:08:46.617Z,41.91
2018-09-24T07:09:55.257Z,42.57
2018-09-24T07:11:03.908Z,42.38
2018-09-24T07:12:12.542Z,42.95
2018-09-24T07:13:21.245Z,43.16
2018-09-24T07:14:30.143Z,43.05
2018-09-24T07:15:38.791Z,43.26
2018-09-24T07:16:47.424Z,43.26
2018-09-24T07:17:56.069Z,43.16
2018-09-24T07:19:04.699Z,43.35
2018-09-24T07:20:13.449Z,43.93
2018-09-24T07:21:22.360Z,45.07
2018-09-24T07:22:31.581Z,46.11
2018-09-24T07:23:40.493Z,47.63
2018-09-24T07:24:49.132Z,48.58
2018-09-24T07:25:57.775Z,50.68
2018-09-24T07:27:06.417Z,52.58
2018-09-24T07:28:15.134Z,55.9
2018-09-24T07:29:23.692Z,58.47
2018-09-24T07:30:32.650Z,59.61
2018-09-24T07:31:41.289Z,61.32
2018-09-24T07:32:49.934Z,63.07
2018-09-24T07:33:58.832Z,64.97
2018-09-24T07:35:07.472Z,67.07
2018-09-24T07:36:16.113Z,69.35
2018-09-24T07:37:24.755Z,70.87
2018-09-24T07:38:33.390Z,73.15
2018-09-24T07:39:42.033Z,75.91
2018-09-24T07:40:50.671Z,79.81
2018-09-24T07:41:59.314Z,82.67
2018-09-24T07:43:07.997Z,85.71
2018-09-24T07:44:17.008Z,88.66
2018-09-24T07:45:25.644Z,91.32
2018-09-24T07:46:34.281Z,96.17
2018-09-24T07:47:42.927Z,99.99
2018-09-24T07:48:51.568Z,99.99
2018-09-24T07:50:00.206Z,99.99
2018-09-24T07:51:09.108Z,99.99
2018-09-24T07:52:18.018Z,99.99
2018-09-24T07:53:26.657Z,99.99
2018-09-24T07:54:35.300Z,99.99
2018-09-24T07:55:44.207Z,99.99
2018-09-24T07:56:52.845Z,99.99
2018-09-24T07:58:01.482Z,99.99
2018-09-24T07:59:10.129Z,99.99
2018-09-24T08:00:19.028Z,99.99
2018-09-24T08:01:27.671Z,99.99
2018-09-24T08:02:36.314Z,99.99
2018-09-24T08:03:44.956Z,99.99
2018-09-24T08:04:53.593Z,99.99
2018-09-24T08:06:02.228Z,99.99
2018-09-24T08:07:10.883Z,99.99
2018-09-24T08:08:19.504Z,99.99
2018-09-24T08:09:28.149Z,99.99
2018-09-24T08:10:36.788Z,99.99
2018-09-24T08:11:45.424Z,99.99
2018-09-24T08:12:54.075Z,99.99
2018-09-24T08:14:02.708Z,99.99
2018-09-24T08:15:11.343Z,99.99
2018-09-24T08:16:19.983Z,99.99
2018-09-24T08:17:28.888Z,99.99
2018-09-24T08:18:37.797Z,99.99
2018-09-24T08:19:46.438Z,99.99
2018-09-24T08:20:55.137Z,99.99
2018-09-24T08:22:03.714Z,99.99
2018-09-24T08:23:12.355Z,99.99
2018-09-24T08:24:21.003Z,99.99
2018-09-24T08:25:29.639Z,99.99
2018-09-24T08:26:38.282Z,99.99
2018-09-24T08:27:46.916Z,99.99
2018-09-24T08:28:55.636Z,99.99
2018-09-24T08:30:04.208Z,99.99
2018-09-24T08:31:12.854Z,99.99
2018-09-24T08:32:21.486Z,99.99
2018-09-24T08:33:30.401Z,99.99
2018-09-24T08:34:39.038Z,99.99
2018-09-24T08:35:47.681Z,99.99
2018-09-24T08:36:56.314Z,99.99
2018-09-24T08:38:05.292Z,99.99
2018-09-24T08:39:13.886Z,99.99
2018-09-24T08:40:22.529Z,99.99
2018-09-24T08:41:31.435Z,99.99
2018-09-24T08:42:40.065Z,99.99
2018-09-24T08:43:48.704Z,99.99
2018-09-24T08:44:57.341Z,99.99
2018-09-24T08:46:06.254Z,99.99
2018-09-24T08:47:14.886Z,99.99
2018-09-24T08:48:23.533Z,99.99
2018-09-24T08:49:32.171Z,99.99
2018-09-24T08:50:40.822Z,99.99
2018-09-24T08:51:49.472Z,99.99
2018-09-24T08:52:58.111Z,99.99
2018-09-24T08:54:06.750Z,99.99
2018-09-24T08:55:15.668Z,99.99
2018-09-24T08:56:24.305Z,99.99
2018-09-24T08:57:32.939Z,99.99
2018-09-24T08:58:41.581Z,99.99
2018-09-24T08:59:50.220Z,99.99
2018-09-24T09:00:58.870Z,99.99
2018-09-24T09:02:07.506Z,99.99
2018-09-24T09:03:16.152Z,99.99
2018-09-24T09:04:24.783Z,99.99
2018-09-24T09:05:33.434Z,99.99
2018-09-24T09:06:42.073Z,99.99
2018-09-24T09:07:50.789Z,99.99
2018-09-24T09:08:59.699Z,99.99
2018-09-24T09:10:08.621Z,99.99
2018-09-24T09:11:17.257Z,99.99
2018-09-24T09:12:25.902Z,99.99
2018-09-24T09:13:34.548Z,99.99
2018-09-24T09:14:43.605Z,99.99
2018-09-24T09:15:52.248Z,99.99
2018-09-24T09:17:01.181Z,99.99
2018-09-24T09:18:09.823Z,99.99
2018-09-24T09:19:18.722Z,99.99
2018-09-24T09:20:27.890Z,99.99
2018-09-24T09:21:36.538Z,99.99
2018-09-24T09:22:45.165Z,99.99
2018-09-24T09:23:53.872Z,99.99
2018-09-24T09:25:02.453Z,99.99
2018-09-24T09:26:11.099Z,99.99
2018-09-24T09:27:19.991Z,99.99
2018-09-24T09:28:28.641Z,99.99
2018-09-24T09:29:37.539Z,99.99
2018-09-24T09:30:46.208Z,99.99
2018-09-24T09:31:54.839Z,99.99
2018-09-24T09:33:03.744Z,99.71
2018-09-24T09:34:12.390Z,99.9
2018-09-24T09:35:21.104Z,99.32
2018-09-24T09:36:30.355Z,98.56
2018-09-24T09:37:38.989Z,99.99
2018-09-24T09:38:47.633Z,98.75
2018-09-24T09:39:56.269Z,99.61
2018-09-24T09:41:05.016Z,99.99
2018-09-24T09:42:13.554Z,99.13
2018-09-24T09:43:22.197Z,98.66
2018-09-24T09:44:30.834Z,98.47
2018-09-24T09:45:39.486Z,99.57
2018-09-24T09:46:48.181Z,99.99
2018-09-24T09:47:56.767Z,99.13
2018-09-24T09:49:05.673Z,99.28
2018-09-24T09:50:14.581Z,98.23
2018-09-24T09:51:23.222Z,99.57
2018-09-24T09:52:31.858Z,99.47
2018-09-24T09:53:40.543Z,98.9
2018-09-24T09:54:49.140Z,99.99
2018-09-24T09:55:57.791Z,99.18
2018-09-24T09:57:06.427Z,99.99
2018-09-24T09:58:15.347Z,99.99
2018-09-24T09:59:24.238Z,99.99
2018-09-24T10:00:33.152Z,99.99
2018-09-24T10:01:41.788Z,99.99
2018-09-24T10:02:50.438Z,99.99
2018-09-24T10:03:59.067Z,99.85
2018-09-24T10:05:07.720Z,98.03
2018-09-24T10:06:16.358Z,97.99
2018-09-24T10:07:25.002Z,98.56
2018-09-24T10:08:33.633Z,99.99
2018-09-24T10:09:42.280Z,99.99
2018-09-24T10:10:50.929Z,99.99
2018-09-24T10:11:59.574Z,99.99
2018-09-24T10:13:08.482Z,99.99
2018-09-24T10:14:17.114Z,99.99
2018-09-24T10:15:25.759Z,99.99
2018-09-24T10:16:34.660Z,99.08
2018-09-24T10:17:43.309Z,99.99
2018-09-24T10:18:52.205Z,99.85
2018-09-24T10:20:00.845Z,98.75
2018-09-24T10:21:09.487Z,97.99
2018-09-24T10:22:18.402Z,97.13
2018-09-24T10:23:27.039Z,95.7
2018-09-24T10:24:35.685Z,95.32
2018-09-24T10:25:44.324Z,97.89
2018-09-24T10:26:53.238Z,97.56
2018-09-24T10:28:02.144Z,96.7
2018-09-24T10:29:10.786Z,96.7
2018-09-24T10:30:19.426Z,94.6
2018-09-24T10:31:28.064Z,95.84
2018-09-24T10:32:36.729Z,95.84
2018-09-24T10:33:45.998Z,93.93
2018-09-24T10:34:54.616Z,94.02
2018-09-24T10:36:03.556Z,94.07
2018-09-24T10:37:12.156Z,92.64
2018-09-24T10:38:20.800Z,92.21
2018-09-24T10:39:29.457Z,93.84
2018-09-24T10:40:38.081Z,93.07
2018-09-24T10:41:46.729Z,93.79
2018-09-24T10:42:55.370Z,94.07
2018-09-24T10:44:04.015Z,94.02
2018-09-24T10:45:12.678Z,94.17
2018-09-24T10:46:21.324Z,93.21
2018-09-24T10:47:30.100Z,93.6
2018-09-24T10:48:38.747Z,94.22
2018-09-24T10:49:47.539Z,93.88
2018-09-24T10:50:56.178Z,94.7
2018-09-24T10:52:04.820Z,95.61
2018-09-24T10:53:13.465Z,94.74
2018-09-24T10:54:22.112Z,94.36
2018-09-24T10:55:30.749Z,94.65
2018-09-24T10:56:39.391Z,96.84
2018-09-24T10:57:48.036Z,96.84
2018-09-24T10:58:56.681Z,97.13
2018-09-24T11:00:05.318Z,96.66
2018-09-24T11:01:13.964Z,97.75
2018-09-24T11:02:22.614Z,98.13
2018-09-24T11:03:31.252Z,97.08
2018-09-24T11:04:39.939Z,99.18
2018-09-24T11:05:48.534Z,97.18
2018-09-24T11:06:57.172Z,96.98
2018-09-24T11:08:06.077Z,97.66
2018-09-24T11:09:14.723Z,97.89
2018-09-24T11:10:23.517Z,95.89
2018-09-24T11:11:32.293Z,92.55
2018-09-24T11:12:41.200Z,92.55
2018-09-24T11:13:49.845Z,91.64
2018-09-24T11:14:58.748Z,93.36
2018-09-24T11:16:07.520Z,94.7
2018-09-24T11:17:17.195Z,93.93
2018-09-24T11:18:25.501Z,92.88
2018-09-24T11:19:34.145Z,92.4
2018-09-24T11:20:42.786Z,93.02
2018-09-24T11:21:51.424Z,94.65
2018-09-24T11:23:00.068Z,96.56
2018-09-24T11:24:08.711Z,95.89
2018-09-24T11:25:17.361Z,96.37
2018-09-24T11:27:35.639Z,91.97
2018-09-24T11:28:44.283Z,93.31
2018-09-24T11:29:52.927Z,93.21
2018-09-24T11:31:01.843Z,91.78
2018-09-24T11:32:10.483Z,90.59
2018-09-24T11:33:19.124Z,92.69
2018-09-24T11:34:27.769Z,94.6
2018-09-24T11:35:36.415Z,97.28
2018-09-24T11:36:45.053Z,97.94
2018-09-24T11:37:53.699Z,96.99
2018-09-24T11:39:02.339Z,95.46
2018-09-24T11:40:10.987Z,96.13
2018-09-24T11:41:19.627Z,93.45
2018-09-24T11:42:28.298Z,93.93
2018-09-24T11:43:36.938Z,94.02
2018-09-24T11:44:45.842Z,92.69
2018-09-24T11:45:54.489Z,93.5
2018-09-24T11:47:03.494Z,95.07
2018-09-24T11:48:12.475Z,93.84
2018-09-24T11:49:21.113Z,92.5
2018-09-24T11:50:29.761Z,92.69
2018-09-24T11:51:38.403Z,91.64
2018-09-24T11:52:47.053Z,93.5
2018-09-24T11:53:55.788Z,93.21
2018-09-24T11:55:04.700Z,93.5
2018-09-24T11:56:13.457Z,93.79
2018-09-24T11:57:22.380Z,92.21
2018-09-24T11:58:31.078Z,89.58
2018-09-24T11:59:39.762Z,89.62
2018-09-24T12:00:48.443Z,90.87
2018-09-24T12:01:57.109Z,90.58
2018-09-24T12:03:06.076Z,90.2
2018-09-24T12:04:14.713Z,88.57
2018-09-24T12:05:23.356Z,90.39
2018-09-24T12:06:32.015Z,89.15
2018-09-24T12:07:40.926Z,89.15
2018-09-24T12:08:49.565Z,88.86
2018-09-24T12:09:58.208Z,86.57
2018-09-24T12:11:06.863Z,87.76
2018-09-24T12:12:15.529Z,91.68
2018-09-24T12:13:24.168Z,92.83
2018-09-24T12:14:32.842Z,95.7
2018-09-24T12:15:41.525Z,99.99
2018-09-24T12:16:50.245Z,99.99
2018-09-24T12:17:58.936Z,99.99
2018-09-24T12:19:07.525Z,99.99
2018-09-24T12:20:16.425Z,99.99
2018-09-24T12:21:25.327Z,99.99
2018-09-24T12:22:33.978Z,99.99
2018-09-24T12:23:42.616Z,99.99
2018-09-24T12:24:51.258Z,99.99
2018-09-24T12:25:59.891Z,99.99
2018-09-24T12:27:08.542Z,99.99
2018-09-24T12:28:17.179Z,99.99
2018-09-24T12:29:25.823Z,99.99
2018-09-24T12:30:34.456Z,99.99
2018-09-24T12:31:43.108Z,99.99
2018-09-24T12:32:52.008Z,99.99
2018-09-24T12:34:00.922Z,99.99
2018-09-24T12:35:09.561Z,99.99
2018-09-24T12:36:18.206Z,99.99
2018-09-24T12:37:26.852Z,99.99
2018-09-24T12:38:35.496Z,99.99
2018-09-24T12:39:44.149Z,99.99
2018-09-24T12:40:52.772Z,99.99
2018-09-24T12:42:01.680Z,99.99
2018-09-24T12:43:10.318Z,99.99
2018-09-24T12:44:18.969Z,99.99
2018-09-24T12:45:27.600Z,99.99
2018-09-24T12:46:36.249Z,99.99
2018-09-24T12:47:44.890Z,99.99
2018-09-24T12:48:53.536Z,99.99
2018-09-24T12:50:02.171Z,99.99
2018-09-24T12:51:10.812Z,99.99
2018-09-24T12:52:19.451Z,99.99
2018-09-24T12:53:28.184Z,99.99
2018-09-24T12:54:37.159Z,99.99
2018-09-24T12:55:45.798Z,99.99
2018-09-24T12:56:54.703Z,99.99
2018-09-24T12:58:03.600Z,99.99
2018-09-24T12:59:12.253Z,99.99
2018-09-24T13:00:21.158Z,99.99
2018-09-24T13:01:29.806Z,99.99
2018-09-24T13:02:38.437Z,99.99
2018-09-24T13:03:47.350Z,99.99
2018-09-24T13:04:55.988Z,99.99
2018-09-24T13:06:04.644Z,99.99
2018-09-24T13:07:13.274Z,99.99
2018-09-24T13:08:21.963Z,99.99
2018-09-24T13:09:30.912Z,99.99
2018-09-24T13:10:39.823Z,99.99
2018-09-24T13:11:48.456Z,99.99
2018-09-24T13:12:57.103Z,99.99
2018-09-24T13:14:05.746Z,99.99
2018-09-24T13:15:14.382Z,99.99
2018-09-24T13:16:23.022Z,99.99
2018-09-24T13:17:31.677Z,99.99
2018-09-24T13:18:40.314Z,99.99
2018-09-24T13:19:48.963Z,99.99
2018-09-24T13:20:57.854Z,99.99
2018-09-24T13:22:06.504Z,99.99
2018-09-24T13:23:15.140Z,99.99
2018-09-24T13:24:23.786Z,99.99
2018-09-24T13:25:32.681Z,99.99
2018-09-24T13:26:41.596Z,99.99
2018-09-24T13:27:50.236Z,99.99
2018-09-24T13:28:58.880Z,99.99
2018-09-24T13:30:07.515Z,99.99
2018-09-24T13:31:16.160Z,99.99
2018-09-24T13:32:24.809Z,99.99
2018-09-24T13:33:33.719Z,99.99
2018-09-24T13:34:42.371Z,99.99
2018-09-24T13:35:51.002Z,99.99
2018-09-24T13:36:59.652Z,99.99
2018-09-24T13:38:08.291Z,99.99
2018-09-24T13:39:16.940Z,99.99
2018-09-24T13:40:25.574Z,99.99
2018-09-24T13:41:34.224Z,99.99
2018-09-24T13:42:43.124Z,99.99
2018-09-24T13:43:51.775Z,99.99
2018-09-24T13:45:00.406Z,99.99
2018-09-24T13:46:09.325Z,99.99
2018-09-24T13:47:17.968Z,99.99
2018-09-24T13:48:26.623Z,99.99
2018-09-24T13:49:35.267Z,99.99
2018-09-24T13:50:43.907Z,99.99
2018-09-24T13:51:52.552Z,99.99
2018-09-24T13:53:01.193Z,99.99
2018-09-24T13:54:09.843Z,99.99
2018-09-24T13:55:18.753Z,99.99
2018-09-24T13:56:27.405Z,99.99
2018-09-24T13:57:36.040Z,99.99
2018-09-24T13:58:44.695Z,99.99
2018-09-24T13:59:53.592Z,99.99
2018-09-24T14:01:02.512Z,99.99
2018-09-24T14:02:11.149Z,99.99
2018-09-24T14:03:19.800Z,99.99
2018-09-24T14:04:28.441Z,99.99
2018-09-24T14:05:37.084Z,99.99
2018-09-24T14:06:45.727Z,99.99
2018-09-24T14:07:54.364Z,97.75
2018-09-24T14:09:03.010Z,97.89
2018-09-24T14:10:11.653Z,99.99
2018-09-24T14:11:20.294Z,99.99
2018-09-24T14:12:28.927Z,99.99
2018-09-24T14:13:37.568Z,99.99
2018-09-24T14:14:46.212Z,99.99
2018-09-24T14:15:54.862Z,99.99
2018-09-24T14:17:04.020Z,99.99
2018-09-24T14:18:12.660Z,99.99
2018-09-24T14:19:21.754Z,99.99
2018-09-24T14:20:30.399Z,99.99
2018-09-24T14:21:39.031Z,99.99
2018-09-24T14:22:47.676Z,99.99
2018-09-24T14:23:56.316Z,99.99
2018-09-24T14:25:04.964Z,99.99
2018-09-24T14:26:13.869Z,99.99
2018-09-24T14:27:24.407Z,99.99
2018-09-24T14:28:33.045Z,99.99
2018-09-24T14:29:41.685Z,99.99
2018-09-24T14:30:50.337Z,99.99
2018-09-24T14:31:58.975Z,99.99
2018-09-24T14:33:07.619Z,99.99
2018-09-24T14:34:16.255Z,99.99
2018-09-24T14:35:24.905Z,99.99
2018-09-24T14:36:33.543Z,99.99
2018-09-24T14:37:42.184Z,99.99
2018-09-24T14:38:50.820Z,99.99
2018-09-24T14:39:59.469Z,99.99
2018-09-24T14:41:08.105Z,99.99
2018-09-24T14:42:16.752Z,99.99
2018-09-24T14:43:25.393Z,99.99
2018-09-24T14:44:34.038Z,99.99
2018-09-24T14:45:42.679Z,99.99
2018-09-24T14:46:51.333Z,99.99
2018-09-24T14:48:00.243Z,99.99